createdAt,value
2019-01-15T00:04:22.881Z,3.30
2019-01-15T00:09:49.569Z,3.30
2019-01-15T00:15:00.392Z,3.30
2019-01-15T00:20:21.623Z,3.30
2019-01-15T00:25:50.382Z,3.30
2019-01-15T00:31:42.259Z,3.30
2019-01-15T00:48:01.684Z,3.50
2019-01-15T00:53:22.932Z,3.60
2019-01-15T00:58:25.955Z,3.60
2019-01-15T01:03:46.831Z,3.60
2019-01-15T01:08:50.259Z,3.60
2019-01-15T01:14:11.515Z,3.50
2019-01-15T01:19:15.100Z,3.60
2019-01-15T01:24:20.879Z,3.60
2019-01-15T01:29:23.614Z,3.70
2019-01-15T01:34:29.564Z,3.70
2019-01-15T01:39:32.625Z,3.70
2019-01-15T01:44:35.503Z,3.70
2019-01-15T01:49:58.012Z,3.70
2019-01-15T01:55:04.479Z,3.80
2019-01-15T02:00:15.940Z,3.80
2019-01-15T02:05:20.071Z,3.70
2019-01-15T02:10:25.199Z,3.70
2019-01-15T02:15:27.995Z,3.70
2019-01-15T02:20:41.713Z,3.60
2019-01-15T02:25:48.231Z,3.70
2019-01-15T02:30:50.998Z,3.80
2019-01-15T02:35:56.752Z,3.80
2019-01-15T02:41:00.259Z,3.80
2019-01-15T02:46:12.223Z,3.70
2019-01-15T02:51:18.496Z,3.70
2019-01-15T02:56:39.790Z,3.70
2019-01-15T03:01:45.832Z,3.70
2019-01-15T03:06:49.272Z,3.70
2019-01-15T03:12:10.463Z,3.70
2019-01-15T03:17:13.968Z,3.70
2019-01-15T03:22:20.189Z,3.70
2019-01-15T03:27:26.631Z,3.70
2019-01-15T03:32:33.236Z,3.70
2019-01-15T03:37:36.100Z,3.70
2019-01-15T03:43:03.493Z,3.70
2019-01-15T03:48:02.310Z,3.70
2019-01-15T03:53:05.090Z,3.80
2019-01-15T03:58:08.758Z,3.80
2019-01-15T04:03:14.554Z,3.80
2019-01-15T04:08:21.251Z,3.80
2019-01-15T04:13:27.548Z,3.70
2019-01-15T04:18:40.177Z,3.60
2019-01-15T04:23:43.795Z,3.60
2019-01-15T04:28:48.727Z,3.70
2019-01-15T04:34:00.630Z,3.70
2019-01-15T04:39:06.543Z,3.70
2019-01-15T04:44:11.596Z,3.70
2019-01-15T04:49:32.985Z,3.80
2019-01-15T04:55:04.084Z,3.80
2019-01-15T05:00:46.775Z,3.90
2019-01-15T05:06:08.339Z,3.80
2019-01-15T05:11:11.552Z,4.00
2019-01-15T05:23:03.584Z,3.90
2019-01-15T05:28:24.983Z,4.00
2019-01-15T05:33:37.279Z,4.00
2019-01-15T05:38:58.411Z,4.00
2019-01-15T05:44:01.225Z,3.90
2019-01-15T05:49:22.463Z,3.80
2019-01-15T05:54:25.741Z,3.90
2019-01-15T05:59:47.058Z,3.90
2019-01-15T06:05:21.534Z,3.90
2019-01-15T06:10:43.062Z,3.90
2019-01-15T06:15:46.428Z,3.90
2019-01-15T06:21:07.567Z,3.90
2019-01-15T06:26:10.760Z,3.90
2019-01-15T06:31:32.248Z,3.90
2019-01-15T06:36:43.196Z,3.90
2019-01-15T06:42:20.526Z,3.90
2019-01-15T06:47:37.602Z,3.80
2019-01-15T06:52:59.150Z,3.80
2019-01-15T06:58:02.315Z,3.80
2019-01-15T07:03:23.372Z,3.80
2019-01-15T07:08:26.273Z,3.80
2019-01-15T07:13:57.120Z,3.80
2019-01-15T07:18:59.387Z,3.80
2019-01-15T07:30:38.067Z,3.70
2019-01-15T07:35:59.067Z,3.70
2019-01-15T07:41:07.507Z,3.80
2019-01-15T07:52:30.628Z,3.70
2019-01-15T07:57:52.291Z,3.80
2019-01-15T08:03:13.479Z,3.80
2019-01-15T08:08:34.839Z,3.90
2019-01-15T08:20:04.371Z,3.90
2019-01-15T08:25:25.380Z,4.00
2019-01-15T08:30:30.760Z,4.10
2019-01-15T08:35:52.300Z,4.20
2019-01-15T08:40:55.128Z,4.30
2019-01-15T08:46:16.074Z,4.30
2019-01-15T08:51:21.579Z,4.40
2019-01-15T08:56:42.822Z,4.50
2019-01-15T09:01:45.589Z,4.50
2019-01-15T09:06:53.296Z,4.60
2019-01-15T09:12:14.540Z,4.60
2019-01-15T09:17:17.258Z,4.70
2019-01-15T09:22:29.861Z,4.70
2019-01-15T09:27:57.736Z,4.80
2019-01-15T09:33:07.759Z,4.90
2019-01-15T09:38:47.384Z,4.80
2019-01-15T09:44:09.594Z,4.80
2019-01-15T09:49:12.551Z,4.90
2019-01-15T09:54:33.435Z,4.90
2019-01-15T09:59:36.410Z,4.90
2019-01-15T10:04:57.819Z,4.90
2019-01-15T10:10:00.586Z,4.90
2019-01-15T10:15:21.875Z,4.90
2019-01-15T10:20:24.595Z,4.90
2019-01-15T10:25:46.331Z,4.90
2019-01-15T10:31:19.015Z,4.90
2019-01-15T10:36:40.499Z,4.90
2019-01-15T10:41:43.299Z,4.90
2019-01-15T10:47:04.307Z,4.90
2019-01-15T10:52:07.396Z,5.00
2019-01-15T10:57:28.515Z,5.00
2019-01-15T11:02:31.223Z,5.00
2019-01-15T11:07:52.844Z,5.00
2019-01-15T11:12:56.196Z,5.10
2019-01-15T11:18:17.084Z,5.10
2019-01-15T11:23:22.732Z,5.20
2019-01-15T11:28:43.760Z,5.30
2019-01-15T11:33:53.134Z,5.40
2019-01-15T11:39:14.951Z,5.40
2019-01-15T11:44:17.942Z,5.50
2019-01-15T11:49:39.202Z,5.50
2019-01-15T11:54:41.981Z,5.60
2019-01-15T12:00:05.360Z,5.50
2019-01-15T12:05:33.620Z,5.50
2019-01-15T12:11:29.207Z,5.50
2019-01-15T12:16:49.735Z,5.60
2019-01-15T12:22:48.040Z,5.70
2019-01-15T12:28:09.187Z,5.80
2019-01-15T12:33:52.383Z,5.70
2019-01-15T12:39:14.874Z,5.70
2019-01-15T12:44:38.643Z,5.90
2019-01-15T12:50:03.986Z,6.00
2019-01-15T12:55:44.459Z,6.10
2019-01-15T13:01:06.800Z,6.40
2019-01-15T13:07:05.775Z,6.70
2019-01-15T13:12:37.303Z,6.90
2019-01-15T13:18:23.635Z,6.80
2019-01-15T13:24:02.965Z,6.70
2019-01-15T13:29:24.496Z,6.60
2019-01-15T13:34:58.660Z,6.50
2019-01-15T13:40:21.183Z,6.60
2019-01-15T13:46:05.751Z,6.50
2019-01-15T13:51:28.168Z,6.60
2019-01-15T13:57:12.738Z,6.60
2019-01-15T14:02:38.244Z,6.60
2019-01-15T14:08:24.877Z,6.60
2019-01-15T14:13:47.166Z,6.50
2019-01-15T14:19:30.771Z,6.40
2019-01-15T14:24:46.306Z,6.30
2019-01-15T14:30:42.731Z,6.20
2019-01-15T14:36:23.182Z,6.20
2019-01-15T14:41:56.491Z,6.10
2019-01-15T14:47:21.757Z,6.20
2019-01-15T14:53:05.667Z,6.20
2019-01-15T14:58:27.719Z,6.20
2019-01-15T15:04:08.512Z,6.20
2019-01-15T15:09:46.003Z,6.20
2019-01-15T15:15:17.992Z,6.20
2019-01-15T15:20:43.359Z,6.10
2019-01-15T15:26:30.150Z,6.10
2019-01-15T15:31:58.711Z,6.20
2019-01-15T15:37:39.188Z,6.10
2019-01-15T15:43:07.889Z,6.10
2019-01-15T15:48:37.050Z,6.10
2019-01-15T15:53:53.934Z,6.10
2019-01-15T15:59:30.239Z,6.10
2019-01-15T16:05:01.856Z,6.10
2019-01-15T16:10:38.019Z,6.10
2019-01-15T16:16:01.748Z,6.10
2019-01-15T16:21:43.756Z,6.10
2019-01-15T16:27:14.695Z,6.10
2019-01-15T16:32:37.638Z,6.10
2019-01-15T16:38:01.841Z,6.20
2019-01-15T16:43:34.743Z,6.10
2019-01-15T16:48:52.951Z,6.20
2019-01-15T16:54:14.974Z,6.20
2019-01-15T16:59:41.449Z,6.20
2019-01-15T17:11:02.752Z,6.20
2019-01-15T17:16:25.723Z,6.30
2019-01-15T17:21:54.875Z,6.30
2019-01-15T17:27:16.340Z,6.30
2019-01-15T17:32:57.440Z,6.20
2019-01-15T17:38:31.434Z,6.30
2019-01-15T17:43:56.858Z,6.20
2019-01-15T17:49:19.911Z,6.20
2019-01-15T17:54:46.135Z,6.20
2019-01-15T18:00:11.525Z,6.30
2019-01-15T18:05:51.996Z,6.20
2019-01-15T18:11:30.206Z,6.30
2019-01-15T18:29:30.976Z,6.20
2019-01-15T18:35:14.879Z,6.30
2019-01-15T18:52:38.903Z,6.30
2019-01-15T18:58:29.440Z,6.20
2019-01-15T19:04:15.092Z,6.30
2019-01-15T19:10:09.151Z,6.30
2019-01-15T19:15:39.554Z,6.30
2019-01-15T19:21:10.104Z,6.30
2019-01-15T19:26:51.964Z,6.30
2019-01-15T19:39:14.026Z,6.20
2019-01-15T19:50:49.460Z,6.20
2019-01-15T19:56:10.561Z,6.20
2019-01-15T20:01:31.781Z,6.20
2019-01-15T20:06:54.287Z,6.20
2019-01-15T20:12:20.240Z,6.30
2019-01-15T20:18:08.897Z,6.20
2019-01-15T20:23:44.553Z,6.10
2019-01-15T20:29:08.963Z,6.00
2019-01-15T20:34:31.025Z,5.90
2019-01-15T20:40:29.217Z,5.90
2019-01-15T20:46:23.186Z,5.90
2019-01-15T20:52:02.561Z,5.90
2019-01-15T20:57:25.342Z,5.90
2019-01-15T21:03:21.403Z,6.00
2019-01-15T21:08:58.787Z,6.00
2019-01-15T21:14:30.815Z,6.00
2019-01-15T21:50:22.383Z,6.00
2019-01-15T22:01:46.294Z,6.10
2019-01-15T22:45:01.993Z,6.20
2019-01-15T23:13:18.250Z,6.40
2019-01-15T23:19:17.426Z,6.50
